createdAt,value
2024-05-09T00:01:58.197Z,4.50
2024-05-09T00:07:00.846Z,4.20
2024-05-09T00:12:03.888Z,4.10
2024-05-09T00:17:06.874Z,3.70
2024-05-09T00:22:09.188Z,3.70
2024-05-09T00:27:13.320Z,3.50
2024-05-09T00:32:16.249Z,3.60
2024-05-09T00:37:19.072Z,4.00
2024-05-09T00:42:21.802Z,3.50
2024-05-09T00:47:24.544Z,3.70
2024-05-09T00:52:28.666Z,4.10
2024-05-09T00:57:30.858Z,4.30
2024-05-09T01:02:33.271Z,4.50
2024-05-09T01:07:35.665Z,4.30
2024-05-09T01:12:38.059Z,4.30
2024-05-09T01:17:41.204Z,4.40
2024-05-09T01:22:44.337Z,4.30
2024-05-09T01:27:47.043Z,4.30
2024-05-09T01:32:49.746Z,4.40
2024-05-09T01:37:52.889Z,4.40
2024-05-09T01:42:57.012Z,4.50
2024-05-09T01:47:59.752Z,4.50
2024-05-09T01:53:02.571Z,5.10
2024-05-09T01:58:04.949Z,5.10
2024-05-09T02:03:09.448Z,4.90
2024-05-09T02:08:30.147Z,4.50
2024-05-09T02:13:32.503Z,4.70
2024-05-09T02:18:34.811Z,4.50
2024-05-09T02:23:37.169Z,4.80
2024-05-09T02:28:39.536Z,4.30
2024-05-09T02:33:41.915Z,4.80
2024-05-09T02:38:44.398Z,4.60
2024-05-09T02:43:48.054Z,4.10
2024-05-09T02:48:50.397Z,4.20
2024-05-09T02:53:52.625Z,4.50
2024-05-09T02:58:56.322Z,4.40
2024-05-09T03:03:58.751Z,4.50
2024-05-09T03:09:01.052Z,4.30
2024-05-09T03:14:03.376Z,4.50
2024-05-09T03:19:05.672Z,4.60
2024-05-09T03:24:08.202Z,4.30
2024-05-09T03:29:10.464Z,4.30
2024-05-09T03:34:12.718Z,4.50
2024-05-09T03:39:15.042Z,4.70
2024-05-09T03:44:17.958Z,5.00
2024-05-09T03:49:22.240Z,7.10
2024-05-09T03:54:25.404Z,5.90
2024-05-09T03:59:27.919Z,4.90
2024-05-09T04:04:30.263Z,5.60
2024-05-09T04:09:32.612Z,5.40
2024-05-09T04:14:35.107Z,5.60
2024-05-09T04:19:37.359Z,5.60
2024-05-09T04:24:39.592Z,5.20
2024-05-09T04:29:41.834Z,5.20
2024-05-09T04:34:44.053Z,5.80
2024-05-09T04:39:46.439Z,5.80
2024-05-09T04:44:49.257Z,4.70
2024-05-09T04:49:51.564Z,5.50
2024-05-09T04:54:54.809Z,5.40
2024-05-09T05:00:00.811Z,5.20
2024-05-09T05:05:03.468Z,5.00
2024-05-09T05:10:09.433Z,4.80
2024-05-09T05:15:14.240Z,3.60
2024-05-09T05:20:24.452Z,3.60
2024-05-09T05:25:33.311Z,3.50
2024-05-09T05:30:37.430Z,2.80
2024-05-09T05:35:40.546Z,2.50
2024-05-09T05:40:42.919Z,2.50
2024-05-09T05:45:46.073Z,2.30
2024-05-09T05:50:48.465Z,2.20
2024-05-09T05:55:50.957Z,2.50
2024-05-09T06:00:53.427Z,2.20
2024-05-09T06:05:55.774Z,2.10
2024-05-09T06:10:58.076Z,2.30
2024-05-09T06:16:02.053Z,2.60
2024-05-09T06:21:04.517Z,2.50
2024-05-09T06:26:06.843Z,4.10
2024-05-09T06:31:09.545Z,2.40
2024-05-09T06:36:11.881Z,2.30
2024-05-09T06:41:14.292Z,2.70
2024-05-09T06:46:17.523Z,2.40
2024-05-09T06:51:19.761Z,2.10
2024-05-09T06:56:22.149Z,2.10
2024-05-09T07:01:24.575Z,2.30
2024-05-09T07:06:27.988Z,1.90
2024-05-09T07:11:31.134Z,2.90
2024-05-09T07:16:33.478Z,2.60
2024-05-09T07:21:35.810Z,3.70
2024-05-09T07:26:38.294Z,2.20
2024-05-09T07:31:40.799Z,2.40
2024-05-09T07:36:43.186Z,3.20
2024-05-09T07:41:45.660Z,2.20
2024-05-09T07:47:48.836Z,2.20
2024-05-09T07:53:29.325Z,2.60
2024-05-09T07:57:35.606Z,2.80
2024-05-09T08:02:37.912Z,2.20
2024-05-09T08:07:40.173Z,2.00
2024-05-09T08:12:42.598Z,2.00
2024-05-09T08:17:44.966Z,2.00
2024-05-09T08:22:47.431Z,2.10
2024-05-09T08:27:49.684Z,2.20
2024-05-09T08:32:52.024Z,2.30
2024-05-09T08:37:54.375Z,2.80
2024-05-09T08:43:01.338Z,2.60
2024-05-09T08:48:08.564Z,2.10
2024-05-09T08:53:11.142Z,2.40
2024-05-09T08:58:20.480Z,2.20
2024-05-09T09:03:29.256Z,1.90
2024-05-09T09:08:32.049Z,2.20
2024-05-09T09:13:34.323Z,1.90
2024-05-09T09:18:36.822Z,2.10
2024-05-09T09:23:41.128Z,4.50
2024-05-09T09:28:44.623Z,2.20
2024-05-09T09:33:47.063Z,2.20
2024-05-09T09:38:51.472Z,2.60
2024-05-09T09:43:56.850Z,3.30
2024-05-09T09:49:00.442Z,2.10
2024-05-09T09:54:05.622Z,2.50
2024-05-09T09:59:09.355Z,2.90
2024-05-09T10:04:15.401Z,2.10
2024-05-09T10:09:18.342Z,2.10
2024-05-09T10:14:21.644Z,3.00
2024-05-09T10:19:27.763Z,2.40
2024-05-09T10:24:49.705Z,2.10
2024-05-09T10:29:53.387Z,2.40
2024-05-09T10:35:06.432Z,2.10
2024-05-09T10:45:19.938Z,2.40
2024-05-09T10:50:28.680Z,2.00
2024-05-09T10:55:34.268Z,2.20
2024-05-09T11:00:37.067Z,1.90
2024-05-09T11:05:42.042Z,2.10
2024-05-09T11:10:45.399Z,2.10
2024-05-09T11:15:49.255Z,2.00
2024-05-09T11:20:52.718Z,1.90
2024-05-09T11:25:56.932Z,1.80
2024-05-09T11:31:07.087Z,1.70
2024-05-09T11:36:10.631Z,1.80
2024-05-09T11:41:19.022Z,2.10
2024-05-09T11:46:21.741Z,2.00
2024-05-09T11:51:24.647Z,2.80
2024-05-09T11:56:26.936Z,2.00
2024-05-09T12:01:29.409Z,1.90
2024-05-09T12:06:32.880Z,2.00
2024-05-09T12:11:35.203Z,2.30
2024-05-09T12:16:37.535Z,2.10
2024-05-09T12:21:40.026Z,2.20
2024-05-09T12:26:42.410Z,2.10
2024-05-09T12:31:44.627Z,1.90
2024-05-09T12:36:46.929Z,2.10
2024-05-09T12:41:49.451Z,2.00
2024-05-09T12:46:51.761Z,2.00
2024-05-09T12:51:54.601Z,1.80
2024-05-09T12:56:56.927Z,2.00
2024-05-09T13:02:01.025Z,2.10
2024-05-09T13:07:07.792Z,1.90
2024-05-09T13:12:11.312Z,1.90
2024-05-09T13:17:13.571Z,1.90
2024-05-09T13:22:15.922Z,2.10
2024-05-09T13:27:18.193Z,1.90
2024-05-09T13:32:20.640Z,1.90
2024-05-09T13:37:23.101Z,1.90
2024-05-09T13:42:25.464Z,2.00
2024-05-09T13:47:28.130Z,2.00
2024-05-09T13:52:31.761Z,2.00
2024-05-09T13:57:34.242Z,1.80
2024-05-09T14:02:36.757Z,1.90
2024-05-09T14:07:39.483Z,2.00
2024-05-09T14:12:42.012Z,2.10
2024-05-09T14:17:44.367Z,2.10
2024-05-09T14:22:46.584Z,2.20
2024-05-09T14:27:48.845Z,2.20
2024-05-09T14:32:51.220Z,2.20
2024-05-09T14:37:53.482Z,2.00
2024-05-09T14:43:01.114Z,2.00
2024-05-09T14:48:07.538Z,2.20
2024-05-09T14:53:12.685Z,2.10
2024-05-09T14:58:15.670Z,2.40
2024-05-09T15:03:19.723Z,2.00
2024-05-09T15:08:22.884Z,2.40
2024-05-09T15:13:25.327Z,2.40
2024-05-09T15:18:29.117Z,2.10
2024-05-09T15:23:31.530Z,2.10
2024-05-09T15:28:33.741Z,1.70
2024-05-09T15:33:36.224Z,2.00
2024-05-09T15:38:39.074Z,1.80
2024-05-09T15:43:41.274Z,2.10
2024-05-09T15:48:44.867Z,1.90
2024-05-09T15:53:48.040Z,2.00
2024-05-09T15:58:50.349Z,2.10
2024-05-09T16:03:52.813Z,2.00
2024-05-09T16:08:56.465Z,2.10
2024-05-09T16:13:58.815Z,2.30
2024-05-09T16:19:01.568Z,2.20
2024-05-09T16:24:04.023Z,2.50
2024-05-09T16:29:06.671Z,2.60
2024-05-09T16:34:09.649Z,2.20
2024-05-09T16:39:12.266Z,2.10
2024-05-09T16:44:14.474Z,2.10
2024-05-09T16:49:16.846Z,2.20
2024-05-09T16:54:19.699Z,2.00
2024-05-09T16:59:22.241Z,1.90
2024-05-09T17:04:26.309Z,2.40
2024-05-09T17:09:28.672Z,2.20
2024-05-09T17:14:30.865Z,2.20
2024-05-09T17:19:33.241Z,2.50
2024-05-09T17:24:36.540Z,2.00
2024-05-09T17:29:39.995Z,2.20
2024-05-09T17:34:42.721Z,2.10
2024-05-09T17:39:45.085Z,2.00
2024-05-09T17:44:47.778Z,2.10
2024-05-09T17:49:50.270Z,2.20
2024-05-09T17:54:53.092Z,2.10
2024-05-09T17:59:55.416Z,2.50
2024-05-09T18:04:57.815Z,2.20
2024-05-09T18:10:01.380Z,2.40
2024-05-09T18:15:04.791Z,2.20
2024-05-09T18:20:09.174Z,2.50
2024-05-09T18:25:14.708Z,2.70
2024-05-09T18:30:27.315Z,3.10
2024-05-09T18:35:33.886Z,3.50
2024-05-09T18:40:38.505Z,3.30
2024-05-09T18:45:42.617Z,2.90
2024-05-09T18:50:44.959Z,2.90
2024-05-09T18:55:48.831Z,2.50
2024-05-09T19:00:54.019Z,2.60
2024-05-09T19:05:57.811Z,2.70
2024-05-09T19:11:01.463Z,3.20
2024-05-09T19:16:04.045Z,3.10
2024-05-09T19:21:06.268Z,3.20
2024-05-09T19:26:09.524Z,3.40
2024-05-09T19:31:11.813Z,3.20
2024-05-09T19:36:14.075Z,3.80
2024-05-09T19:41:17.459Z,3.50
2024-05-09T19:46:19.903Z,3.50
2024-05-09T19:51:22.303Z,3.30
2024-05-09T19:56:24.979Z,3.20
2024-05-09T20:01:27.303Z,3.60
2024-05-09T20:06:30.367Z,3.70
2024-05-09T20:11:33.035Z,3.70
2024-05-09T20:16:36.112Z,4.30
2024-05-09T20:21:42.881Z,4.50
2024-05-09T20:26:45.344Z,4.10
2024-05-09T20:31:47.573Z,4.30
2024-05-09T20:36:49.985Z,4.70
2024-05-09T20:41:55.431Z,4.80
2024-05-09T20:46:57.700Z,4.70
2024-05-09T20:52:00.036Z,4.40
2024-05-09T20:57:03.562Z,5.00
2024-05-09T21:02:06.356Z,5.70
2024-05-09T21:07:10.010Z,4.70
2024-05-09T21:12:12.442Z,4.70
2024-05-09T21:17:14.795Z,5.30
2024-05-09T21:22:17.196Z,5.90
2024-05-09T21:27:22.101Z,5.50
2024-05-09T21:32:24.397Z,6.20
2024-05-09T21:37:27.092Z,6.40
2024-05-09T21:42:29.291Z,6.30
2024-05-09T21:47:35.304Z,6.20
2024-05-09T21:52:37.845Z,6.40
2024-05-09T21:57:41.721Z,6.60
2024-05-09T22:02:44.152Z,5.40
2024-05-09T22:07:46.698Z,5.40
2024-05-09T22:12:49.239Z,5.00
2024-05-09T22:17:51.553Z,5.30
2024-05-09T22:22:54.185Z,5.10
2024-05-09T22:27:56.452Z,4.80
2024-05-09T22:32:58.758Z,4.90
2024-05-09T22:38:04.626Z,5.70
2024-05-09T22:43:06.973Z,5.30
2024-05-09T22:48:09.640Z,5.20
2024-05-09T22:53:12.174Z,5.70
2024-05-09T22:58:15.304Z,5.30
2024-05-09T23:03:20.432Z,5.50
2024-05-09T23:08:22.776Z,4.70
2024-05-09T23:13:24.978Z,5.20
2024-05-09T23:18:27.378Z,4.90
2024-05-09T23:23:29.592Z,5.10
2024-05-09T23:28:32.008Z,5.30
2024-05-09T23:33:34.778Z,5.10
2024-05-09T23:38:39.323Z,5.20
2024-05-09T23:43:41.556Z,4.80
2024-05-09T23:48:43.841Z,4.30
2024-05-09T23:53:46.269Z,5.10
2024-05-09T23:58:49.433Z,4.40
